Arlington, Alabama
Current Conditions -  °F | °C
As of 7:55 PM on Friday 31 Oct 2014 (Local Time) from KDYA Reporting Station
Broken Clouds Broken Clouds  
Wind Chill: 56°   Ceiling: 3600
Heat Index: 56°   Visibility: 10mi
Dew Point: 42°   Wind: 13mph
Humidity: 58%   Direction: 310°NW
Pressure: 30.11"   Gusts: 22mph
Location:  32.06°N, 87.59°W
Report Text: KDYA 010055Z AUTO 31011G19KT 10SM BKN036 BKN042 14/06 A3011 RMK AO2 T01360055
Loading
Personal Weather Stations






























Interactive Weather Map
Tropical Storm Tracking
New forecast layout! Learn more

10-Day Weather Forecast

Advertisements
Track Severe Weather on mobile